createdAt,value
2023-04-05T02:35:17.480Z,-2.00
2023-04-05T02:37:45.076Z,-2.00
2023-04-05T02:40:15.380Z,-2.10
2023-04-05T02:42:42.986Z,-2.20
2023-04-05T02:45:11.395Z,-2.10
2023-04-05T02:47:38.862Z,-2.10
2023-04-05T02:50:07.484Z,-2.10
2023-04-05T02:52:41.165Z,-2.10
2023-04-05T02:55:08.593Z,-2.10
2023-04-05T02:57:36.877Z,-2.20
2023-04-05T03:00:15.999Z,-2.10
2023-04-05T03:02:43.484Z,-2.10
2023-04-05T03:05:11.169Z,-2.10
2023-04-05T03:07:38.720Z,-2.10
2023-04-05T03:10:10.415Z,-2.20
2023-04-05T03:12:41.608Z,-2.20
2023-04-05T03:15:11.535Z,-2.20
2023-04-05T03:17:44.604Z,-2.20
2023-04-05T03:20:14.003Z,-2.20
2023-04-05T03:22:42.157Z,-2.20
2023-04-05T03:25:10.615Z,-2.20
2023-04-05T03:27:45.358Z,-2.20
2023-04-05T03:30:16.537Z,-2.20
2023-04-05T03:33:04.619Z,-2.20
2023-04-05T03:35:43.321Z,-2.20
2023-04-05T03:38:12.186Z,-2.20
2023-04-05T03:40:47.804Z,-2.20
2023-04-05T03:43:15.927Z,-2.20
2023-04-05T03:45:43.454Z,-2.20
2023-04-05T03:48:12.091Z,-2.20
2023-04-05T03:50:39.654Z,-2.30
2023-04-05T03:53:07.005Z,-2.30
2023-04-05T03:55:34.789Z,-2.40
2023-04-05T03:58:05.787Z,-2.40
2023-04-05T04:00:36.505Z,-2.40
2023-04-05T04:03:14.224Z,-2.40
2023-04-05T04:05:45.942Z,-2.40
2023-04-05T04:08:13.772Z,-2.40
2023-04-05T04:10:41.434Z,-2.50
2023-04-05T04:13:22.261Z,-2.50
2023-04-05T04:16:28.937Z,-2.50
2023-04-05T04:19:08.197Z,-2.60
2023-04-05T04:22:02.747Z,-2.60
2023-04-05T04:24:50.362Z,-2.60
2023-04-05T04:27:42.380Z,-2.60
2023-04-05T04:30:22.940Z,-2.70
2023-04-05T04:33:17.760Z,-2.70
2023-04-05T04:36:08.224Z,-2.70
2023-04-05T04:39:14.043Z,-2.60
2023-04-05T04:42:07.154Z,-2.60
2023-04-05T04:44:49.246Z,-2.60
2023-04-05T04:47:23.891Z,-2.60
2023-04-05T04:50:05.106Z,-2.60
2023-04-05T04:52:34.430Z,-2.60
2023-04-05T04:55:02.973Z,-2.60
2023-04-05T04:57:30.811Z,-2.60
2023-04-05T04:59:58.535Z,-2.50
2023-04-05T05:02:29.115Z,-2.50
2023-04-05T05:04:58.041Z,-2.50
2023-04-05T05:07:25.805Z,-2.60
2023-04-05T05:09:54.361Z,-2.60
2023-04-05T05:12:22.181Z,-2.60
2023-04-05T05:14:49.638Z,-2.70
2023-04-05T05:17:17.077Z,-2.70
2023-04-05T05:19:45.524Z,-2.70
2023-04-05T05:22:13.084Z,-2.60
2023-04-05T05:24:40.498Z,-2.60
2023-04-05T05:27:07.822Z,-2.60
2023-04-05T05:29:35.177Z,-2.50
2023-04-05T05:32:02.752Z,-2.50
2023-04-05T05:34:30.179Z,-2.40
2023-04-05T05:36:59.079Z,-2.40
2023-04-05T05:39:26.362Z,-2.40
2023-04-05T05:41:53.929Z,-2.40
2023-04-05T05:44:21.334Z,-2.40
2023-04-05T05:46:48.862Z,-2.40
2023-04-05T05:49:18.316Z,-2.30
2023-04-05T05:51:46.076Z,-2.30
2023-04-05T05:54:13.638Z,-2.30
2023-04-05T05:56:41.449Z,-2.30
2023-04-05T05:59:08.950Z,-2.30
2023-04-05T06:01:42.920Z,-2.20
2023-04-05T06:04:13.322Z,-2.20
2023-04-05T06:06:43.240Z,-2.10
2023-04-05T06:09:11.309Z,-2.10
2023-04-05T06:11:46.294Z,-2.10
2023-04-05T06:14:21.110Z,-2.00
2023-04-05T06:16:48.438Z,-2.00
2023-04-05T06:19:16.012Z,-2.00
2023-04-05T06:21:46.722Z,-1.90
2023-04-05T06:24:14.579Z,-1.90
2023-04-05T06:26:42.072Z,-1.90
2023-04-05T06:29:09.725Z,-1.90
2023-04-05T06:31:38.057Z,-1.80
2023-04-05T06:34:05.963Z,-1.70
2023-04-05T06:36:34.517Z,-1.70
2023-04-05T06:39:02.365Z,-1.70
2023-04-05T06:41:29.925Z,-1.60
2023-04-05T06:44:01.087Z,-1.40
2023-04-05T06:46:29.184Z,-1.20
2023-04-05T06:48:56.666Z,-0.90
2023-04-05T06:51:27.994Z,-0.70
2023-04-05T06:53:56.570Z,-0.40
2023-04-05T06:56:24.366Z,0.00
2023-04-05T06:58:52.100Z,0.30
2023-04-05T07:01:19.907Z,0.70
2023-04-05T07:03:47.454Z,1.00
2023-04-05T07:06:14.879Z,1.30
2023-04-05T07:08:42.399Z,1.60
2023-04-05T07:11:09.796Z,1.70
2023-04-05T07:13:37.311Z,1.80
2023-04-05T07:16:05.088Z,2.00
2023-04-05T07:18:36.878Z,2.00
2023-04-05T07:21:07.396Z,2.20
2023-04-05T07:23:35.710Z,2.30
2023-04-05T07:26:11.393Z,2.40
2023-04-05T07:28:39.517Z,2.50
2023-04-05T07:31:10.773Z,2.70
2023-04-05T07:33:42.078Z,2.80
2023-04-05T07:36:10.859Z,2.90
2023-04-05T07:38:38.678Z,3.10
2023-04-05T07:41:06.672Z,3.20
2023-04-05T07:43:34.186Z,3.40
2023-04-05T07:46:02.856Z,3.50
2023-04-05T07:48:35.529Z,3.60
2023-04-05T07:51:07.451Z,3.70
2023-04-05T07:53:35.915Z,3.70
2023-04-05T07:56:08.526Z,3.70
2023-04-05T07:58:41.009Z,3.50
2023-04-05T08:01:10.833Z,3.30
2023-04-05T08:03:40.303Z,3.40
2023-04-05T08:06:12.964Z,3.50
2023-04-05T08:08:41.568Z,3.60
2023-04-05T08:11:09.111Z,3.50
2023-04-05T08:13:38.917Z,3.50
2023-04-05T08:16:06.608Z,3.40
2023-04-05T08:18:34.220Z,3.40
2023-04-05T08:21:01.708Z,3.50
2023-04-05T08:23:29.507Z,3.50
2023-04-05T08:25:57.074Z,3.60
2023-04-05T08:28:24.946Z,3.60
2023-04-05T08:30:58.334Z,3.60
2023-04-05T08:33:28.672Z,3.70
2023-04-05T08:35:56.175Z,3.80
2023-04-05T08:38:24.133Z,3.90
2023-04-05T08:40:52.765Z,4.00
2023-04-05T08:43:40.917Z,4.00
2023-04-05T08:46:10.227Z,4.10
2023-04-05T08:48:39.357Z,4.20
2023-04-05T08:51:09.930Z,4.30
2023-04-05T08:53:38.038Z,4.30
2023-04-05T08:56:05.965Z,4.40
2023-04-05T08:58:35.732Z,4.60
2023-04-05T09:01:05.202Z,4.60
2023-04-05T09:03:40.593Z,4.70
2023-04-05T09:06:12.451Z,4.90
2023-04-05T09:08:43.245Z,5.00
2023-04-05T09:11:19.040Z,5.20
2023-04-05T09:17:08.315Z,5.40
2023-04-05T09:19:41.247Z,5.50
2023-04-05T09:22:14.212Z,5.60
2023-04-05T09:24:44.071Z,5.80
2023-04-05T09:27:15.119Z,5.80
2023-04-05T09:29:47.981Z,5.90
2023-04-05T09:32:18.407Z,6.10
2023-04-05T09:34:46.183Z,6.20
2023-04-05T09:37:23.608Z,6.30
2023-04-05T09:39:54.605Z,6.50
2023-04-05T09:42:26.100Z,6.70
2023-04-05T09:48:11.153Z,7.00
2023-04-05T09:51:15.024Z,7.10
2023-04-05T09:54:08.598Z,7.10
2023-04-05T09:56:41.032Z,7.10
2023-04-05T09:59:11.459Z,7.30
2023-04-05T10:01:55.264Z,7.60
2023-04-05T10:04:25.378Z,7.80
2023-04-05T10:06:56.150Z,8.00
2023-04-05T10:09:24.396Z,8.30
2023-04-05T10:11:52.774Z,8.70
2023-04-05T10:14:20.807Z,8.80
2023-04-05T10:16:59.707Z,8.60
2023-04-05T10:19:59.657Z,8.60
2023-04-05T10:22:39.887Z,8.60
2023-04-05T10:25:35.348Z,8.60
2023-04-05T10:28:10.125Z,8.80
2023-04-05T10:30:55.786Z,9.00
2023-04-05T10:33:34.750Z,9.10
2023-04-05T10:36:23.542Z,9.40
2023-04-05T10:39:16.198Z,9.80
2023-04-05T10:41:55.670Z,10.20
2023-04-05T10:44:47.150Z,10.30
2023-04-05T10:47:41.908Z,10.10
2023-04-05T10:50:13.700Z,9.90
2023-04-05T10:52:42.863Z,9.70
2023-04-05T10:55:11.529Z,9.50
2023-04-05T10:57:40.519Z,9.50
2023-04-05T11:00:09.348Z,9.40
2023-04-05T11:02:37.752Z,9.30
2023-04-05T11:05:37.990Z,9.20
2023-04-05T11:08:18.906Z,9.10
2023-04-05T11:11:04.749Z,9.00
2023-04-05T11:14:02.293Z,9.10
2023-04-05T11:16:54.285Z,9.00
2023-04-05T11:19:55.213Z,9.00
2023-04-05T11:22:39.845Z,9.20
2023-04-05T11:25:40.842Z,9.50
2023-04-05T11:28:57.810Z,9.60
2023-04-05T11:31:27.891Z,9.70
2023-04-05T11:33:59.940Z,9.90
2023-04-05T11:36:48.963Z,10.10
2023-04-05T11:39:22.402Z,10.30
2023-04-05T11:42:14.719Z,10.20
2023-04-05T12:28:53.900Z,9.20
2023-04-05T12:34:49.652Z,9.20
2023-04-05T12:37:17.959Z,8.90
2023-04-05T12:39:46.037Z,8.90
2023-04-05T12:42:18.318Z,8.90
2023-04-05T12:44:46.157Z,8.90
2023-04-05T12:47:16.068Z,8.80
2023-04-05T12:49:43.799Z,8.70
2023-04-05T12:52:11.946Z,8.50
2023-04-05T12:54:39.602Z,8.40
2023-04-05T12:57:09.277Z,8.40
2023-04-05T12:59:37.056Z,8.50
2023-04-05T13:02:11.617Z,8.40
2023-04-05T13:04:49.371Z,8.50
2023-04-05T13:07:16.906Z,8.50
2023-04-05T13:09:44.516Z,8.40
2023-04-05T13:12:12.725Z,8.40
2023-04-05T13:14:40.282Z,8.40
2023-04-05T13:17:07.751Z,8.60
2023-04-05T13:19:35.309Z,8.60
2023-04-05T13:22:02.974Z,8.60
2023-04-05T13:24:37.440Z,8.40
2023-04-05T13:27:10.841Z,8.30
2023-04-05T13:29:38.518Z,8.20
2023-04-05T13:32:09.005Z,8.10
2023-04-05T13:34:37.090Z,8.10
2023-04-05T13:37:04.999Z,8.20
2023-04-05T13:39:32.992Z,8.20
2023-04-05T13:42:02.899Z,8.30
2023-04-05T13:44:30.633Z,8.30
2023-04-05T13:46:59.840Z,8.40
2023-04-05T13:49:27.312Z,8.50
2023-04-05T13:51:55.155Z,8.60
2023-04-05T13:54:22.641Z,8.60
2023-04-05T13:56:50.136Z,8.60
2023-04-05T13:59:19.793Z,8.60
2023-04-05T14:01:47.937Z,8.70
2023-04-05T14:04:16.718Z,8.60
2023-04-05T14:06:44.748Z,8.60
2023-04-05T14:09:12.372Z,8.60
2023-04-05T14:11:40.076Z,8.50
2023-04-05T14:14:07.642Z,8.50
2023-04-05T14:16:35.759Z,8.40
2023-04-05T14:19:03.410Z,8.40
2023-04-05T14:21:31.528Z,8.40
2023-04-05T14:23:59.792Z,8.40
2023-04-05T14:26:28.715Z,8.40
2023-04-05T14:28:56.466Z,8.40
2023-04-05T14:31:25.769Z,8.30
2023-04-05T14:33:53.443Z,8.30
2023-04-05T14:36:21.252Z,8.20
2023-04-05T14:38:48.813Z,8.20
2023-04-05T14:41:16.733Z,8.20
2023-04-05T14:43:44.523Z,8.10
2023-04-05T14:46:12.054Z,8.10
2023-04-05T14:48:39.636Z,8.00
2023-04-05T14:51:07.387Z,8.00
2023-04-05T14:53:34.930Z,8.00
2023-04-05T14:56:02.586Z,8.00
2023-04-05T14:58:30.150Z,8.00
2023-04-05T15:00:58.129Z,8.00
2023-04-05T15:03:26.178Z,8.00
2023-04-05T15:05:54.284Z,8.00
2023-04-05T15:08:22.156Z,7.90
2023-04-05T15:10:50.193Z,7.90
2023-04-05T15:13:20.037Z,7.90
2023-04-05T15:15:47.727Z,7.80
2023-04-05T15:18:15.313Z,7.80
2023-04-05T15:20:42.833Z,7.80
2023-04-05T15:23:10.556Z,7.80
2023-04-05T15:25:38.126Z,7.80
2023-04-05T15:28:07.040Z,7.80
2023-04-05T15:30:35.952Z,7.70
2023-04-05T15:33:03.775Z,7.70
2023-04-05T15:35:32.187Z,7.70
2023-04-05T15:38:00.767Z,7.70
2023-04-05T15:40:29.556Z,7.80
2023-04-05T15:42:57.127Z,7.80
2023-04-05T15:45:24.728Z,7.80
2023-04-05T15:47:52.380Z,7.80
2023-04-05T15:50:20.709Z,7.80
2023-04-05T15:52:48.669Z,7.80
2023-04-05T15:55:16.256Z,7.90
2023-04-05T15:57:43.874Z,7.90
2023-04-05T16:00:12.165Z,8.00
2023-04-05T16:02:40.005Z,8.00
2023-04-05T16:05:07.722Z,8.00
2023-04-05T16:07:35.276Z,8.00
2023-04-05T16:10:04.525Z,8.00
2023-04-05T16:12:32.238Z,8.10
2023-04-05T16:14:59.728Z,8.00
2023-04-05T16:17:28.348Z,7.90
2023-04-05T16:19:57.530Z,7.90
2023-04-05T16:22:26.108Z,7.90
2023-04-05T16:24:53.668Z,7.90
2023-04-05T16:27:21.241Z,7.80
2023-04-05T16:29:49.521Z,7.80
2023-04-05T16:32:18.065Z,7.70
2023-04-05T16:34:46.011Z,7.60
2023-04-05T16:37:14.242Z,7.60
2023-04-05T16:39:42.294Z,7.50
2023-04-05T16:42:09.955Z,7.50
2023-04-05T16:44:37.616Z,7.50
2023-04-05T16:47:05.319Z,7.50
2023-04-05T16:49:32.887Z,7.50
2023-04-05T16:52:00.564Z,7.40
2023-04-05T16:54:28.196Z,7.40
2023-04-05T16:56:56.728Z,7.40
2023-04-05T16:59:24.405Z,7.40
2023-04-05T17:01:52.009Z,7.30
2023-04-05T17:04:19.602Z,7.30
2023-04-05T17:06:46.990Z,7.20
2023-04-05T17:09:16.337Z,7.20
2023-04-05T17:11:46.757Z,7.20
2023-04-05T17:14:16.916Z,7.10
2023-04-05T17:16:47.432Z,7.00
2023-04-05T17:19:18.678Z,6.90
2023-04-05T17:21:49.081Z,6.90
2023-04-05T17:24:17.920Z,6.80
2023-04-05T17:26:47.637Z,6.80
2023-04-05T17:29:17.789Z,6.70
2023-04-05T17:31:45.415Z,6.70
2023-04-05T17:34:15.210Z,6.60
2023-04-05T17:36:43.787Z,6.60
2023-04-05T17:39:11.393Z,6.50
2023-04-05T17:41:39.006Z,6.50
2023-04-05T17:44:06.726Z,6.40
2023-04-05T17:46:41.663Z,6.40
2023-04-05T17:49:14.205Z,6.30
2023-04-05T17:51:41.894Z,6.30
2023-04-05T17:54:09.393Z,6.30
2023-04-05T17:56:38.928Z,6.20
2023-04-05T17:59:08.049Z,6.20
2023-04-05T18:01:36.438Z,6.10
2023-04-05T18:04:06.275Z,6.10
2023-04-05T18:06:34.367Z,6.00
2023-04-05T18:09:03.047Z,5.90
2023-04-05T18:11:31.109Z,5.90
2023-04-05T18:14:01.800Z,5.90
2023-04-05T18:16:30.152Z,5.80
2023-04-05T18:18:57.789Z,5.80
2023-04-05T18:21:25.270Z,5.70
2023-04-05T18:23:53.156Z,5.70
2023-04-05T18:26:20.990Z,5.60
2023-04-05T18:28:49.437Z,5.60
2023-04-05T18:31:17.197Z,5.60
2023-04-05T18:33:45.032Z,5.50
2023-04-05T18:36:13.281Z,5.50
2023-04-05T18:38:41.112Z,5.40
2023-04-05T18:41:10.056Z,5.40
2023-04-05T18:43:37.727Z,5.40
2023-04-05T18:46:07.028Z,5.40
2023-04-05T18:48:44.033Z,5.30
2023-04-05T18:51:17.632Z,5.30
2023-04-05T18:53:48.640Z,5.30
2023-04-05T18:56:20.564Z,5.20
2023-04-05T18:58:59.397Z,5.20
2023-04-05T19:01:29.168Z,5.20
2023-04-05T19:03:57.624Z,5.10
2023-04-05T19:06:25.357Z,5.10
2023-04-05T19:08:52.999Z,5.10
2023-04-05T19:11:22.404Z,5.00
2023-04-05T19:13:50.965Z,5.00
2023-04-05T19:16:19.216Z,4.90
2023-04-05T19:18:46.788Z,4.90
2023-04-05T19:21:14.306Z,4.80
2023-04-05T19:23:42.294Z,4.80
2023-04-05T19:26:09.957Z,4.80
2023-04-05T19:28:37.641Z,4.70
2023-04-05T19:31:05.302Z,4.70
2023-04-05T19:33:33.228Z,4.70
2023-04-05T19:36:02.486Z,4.60
2023-04-05T19:38:32.797Z,4.60
2023-04-05T19:41:00.818Z,4.60
2023-04-05T19:43:31.913Z,4.60
2023-04-05T19:46:01.079Z,4.50
2023-04-05T19:48:40.319Z,4.50
2023-04-05T19:51:14.461Z,4.40
2023-04-05T19:53:49.450Z,4.40
2023-04-05T19:56:26.716Z,4.30
2023-04-05T19:59:01.183Z,4.30
2023-04-05T20:01:33.566Z,4.20
2023-04-05T20:04:08.883Z,4.10
2023-04-05T20:06:36.631Z,4.10
2023-04-05T20:09:06.707Z,4.00
2023-04-05T20:11:35.418Z,3.90
2023-04-05T20:14:04.345Z,3.90
2023-04-05T20:16:49.837Z,3.70
2023-04-05T20:19:31.415Z,3.70
2023-04-05T20:22:01.719Z,3.60
2023-04-05T20:24:32.451Z,3.50
2023-04-05T20:27:00.220Z,3.50
2023-04-05T20:29:32.608Z,3.40
2023-04-05T20:32:02.491Z,3.30
2023-04-05T20:34:34.959Z,3.20
2023-04-05T20:37:07.447Z,3.20
2023-04-05T20:39:35.461Z,3.10
2023-04-05T20:42:04.213Z,3.00
2023-04-05T20:44:32.002Z,2.90
2023-04-05T20:47:00.859Z,2.90
2023-04-05T20:49:28.629Z,2.80
2023-04-05T20:51:57.699Z,2.70
2023-04-05T20:54:25.839Z,2.60
2023-04-05T20:56:53.658Z,2.60
2023-04-05T20:59:22.136Z,2.50
2023-04-05T21:01:49.914Z,2.50
2023-04-05T21:04:17.565Z,2.40
2023-04-05T21:06:45.253Z,2.40
2023-04-05T21:09:14.211Z,2.30
2023-04-05T21:11:42.757Z,2.30
2023-04-05T21:14:10.328Z,2.20
2023-04-05T21:16:37.985Z,2.20
2023-04-05T21:19:06.057Z,2.20
2023-04-05T21:21:34.014Z,2.10
2023-04-05T21:24:01.879Z,2.10
2023-04-05T21:26:29.683Z,2.00
2023-04-05T21:28:57.413Z,2.00
2023-04-05T21:31:25.308Z,1.90
2023-04-05T21:33:52.971Z,1.90
2023-04-05T21:36:20.557Z,1.90
2023-04-05T21:38:48.450Z,1.90
2023-04-05T21:41:16.639Z,1.80
2023-04-05T21:43:44.312Z,1.80
2023-04-05T21:46:12.262Z,1.70
2023-04-05T21:48:39.950Z,1.70
2023-04-05T21:51:07.644Z,1.60
2023-04-05T21:53:36.045Z,1.60
2023-04-05T21:56:04.627Z,1.60
2023-04-05T21:58:32.151Z,1.60
2023-04-05T22:01:00.254Z,1.50
2023-04-05T22:03:27.863Z,1.50
2023-04-05T22:05:55.750Z,1.50
2023-04-05T22:08:23.322Z,1.40
2023-04-05T22:10:51.058Z,1.40
2023-04-05T22:13:18.593Z,1.30
2023-04-05T22:15:46.631Z,1.40
2023-04-05T22:18:14.417Z,1.30
2023-04-05T22:20:42.000Z,1.30
2023-04-05T22:23:09.554Z,1.20
2023-04-05T22:25:36.998Z,1.20
2023-04-05T22:28:04.634Z,1.20
2023-04-05T22:30:42.860Z,1.20
2023-04-05T22:33:15.306Z,1.10
2023-04-05T22:35:42.949Z,1.10
2023-04-05T22:38:10.608Z,1.10
2023-04-05T22:40:38.370Z,1.00
2023-04-05T22:43:06.662Z,1.00
2023-04-05T22:45:34.169Z,0.90
2023-04-05T22:48:02.078Z,0.90
2023-04-05T22:50:29.834Z,0.80
2023-04-05T22:52:57.374Z,0.80
2023-04-05T22:55:25.042Z,0.80
2023-04-05T22:57:52.668Z,0.70
2023-04-05T23:00:20.434Z,0.70
2023-04-05T23:02:48.126Z,0.70
2023-04-05T23:05:15.871Z,0.60
2023-04-05T23:07:44.032Z,0.60
2023-04-05T23:10:11.836Z,0.60
2023-04-05T23:12:39.466Z,0.50
2023-04-05T23:15:07.306Z,0.50
2023-04-05T23:17:34.999Z,0.50
2023-04-05T23:20:02.863Z,0.50
2023-04-05T23:22:30.693Z,0.50
2023-04-05T23:25:02.604Z,0.50
2023-04-05T23:27:30.553Z,0.50
2023-04-05T23:29:58.318Z,0.50
2023-04-05T23:32:26.258Z,0.50
2023-04-05T23:34:53.878Z,0.50
2023-04-05T23:37:21.504Z,0.50
2023-04-05T23:39:49.208Z,0.50
2023-04-05T23:42:16.755Z,0.40
2023-04-05T23:44:44.305Z,0.40
2023-04-05T23:47:11.712Z,0.30
2023-04-05T23:49:39.264Z,0.30
2023-04-05T23:52:06.967Z,0.30
2023-04-05T23:54:34.429Z,0.30
2023-04-05T23:57:02.291Z,0.30
2023-04-05T23:59:29.846Z,0.30
